createdAt,value
2022-11-22T00:00:17.289Z,4.71
2022-11-22T00:02:44.638Z,4.72
2022-11-22T00:05:11.740Z,4.72
2022-11-22T00:07:39.351Z,4.72
2022-11-22T00:10:11.859Z,4.75
2022-11-22T00:12:39.580Z,4.73
2022-11-22T00:15:07.700Z,4.78
2022-11-22T00:17:34.768Z,4.77
2022-11-22T00:20:01.919Z,4.78
2022-11-22T00:22:31.391Z,4.81
2022-11-22T00:24:58.044Z,4.85
2022-11-22T00:27:25.202Z,4.90
2022-11-22T00:29:52.467Z,4.89
2022-11-22T00:32:19.100Z,4.93
2022-11-22T00:34:45.707Z,4.92
2022-11-22T00:37:12.356Z,4.92
2022-11-22T00:39:38.966Z,4.93
2022-11-22T00:42:05.622Z,4.95
2022-11-22T00:44:32.234Z,4.98
2022-11-22T00:46:58.820Z,5.03
2022-11-22T00:49:25.490Z,5.06
2022-11-22T00:51:52.107Z,5.13
2022-11-22T00:54:18.734Z,5.19
2022-11-22T00:56:45.310Z,5.26
2022-11-22T00:59:11.889Z,5.30
2022-11-22T01:01:38.563Z,5.31
2022-11-22T01:04:05.216Z,5.38
2022-11-22T01:06:32.154Z,5.37
2022-11-22T01:08:58.835Z,5.39
2022-11-22T01:11:25.439Z,5.38
2022-11-22T01:13:52.024Z,5.41
2022-11-22T01:16:19.433Z,5.39
2022-11-22T01:18:46.156Z,5.41
2022-11-22T01:21:13.157Z,5.34
2022-11-22T01:23:39.822Z,5.27
2022-11-22T01:26:08.977Z,5.24
2022-11-22T01:28:36.723Z,5.27
2022-11-22T01:31:04.942Z,5.26
2022-11-22T01:33:31.542Z,5.30
2022-11-22T01:35:58.628Z,5.34
2022-11-22T01:38:25.546Z,5.27
2022-11-22T01:40:53.228Z,5.28
2022-11-22T01:43:23.780Z,5.27
2022-11-22T01:45:52.820Z,5.26
2022-11-22T01:48:29.973Z,5.21
2022-11-22T01:51:02.646Z,5.17
2022-11-22T01:53:34.622Z,5.10
2022-11-22T01:56:04.646Z,5.09
2022-11-22T01:58:33.985Z,5.09
2022-11-22T02:01:00.772Z,5.04
2022-11-22T02:03:29.540Z,5.01
2022-11-22T02:05:56.519Z,5.06
2022-11-22T02:08:32.494Z,5.10
2022-11-22T02:11:01.754Z,5.03
2022-11-22T02:13:30.602Z,5.03
2022-11-22T02:15:58.428Z,5.01
2022-11-22T02:18:25.003Z,5.07
2022-11-22T02:20:53.007Z,5.08
2022-11-22T02:23:34.688Z,5.08
2022-11-22T02:26:02.552Z,5.07
2022-11-22T02:28:31.516Z,5.04
2022-11-22T02:30:58.437Z,5.00
2022-11-22T02:33:25.006Z,5.01
2022-11-22T02:35:51.855Z,5.01
2022-11-22T02:38:22.559Z,5.02
2022-11-22T02:40:54.636Z,5.00
2022-11-22T02:43:26.769Z,4.99
2022-11-22T02:45:53.402Z,4.95
2022-11-22T02:48:20.040Z,4.99
2022-11-22T02:50:47.198Z,4.96
2022-11-22T02:53:14.252Z,4.95
2022-11-22T02:55:41.093Z,4.92
2022-11-22T02:58:08.104Z,4.87
2022-11-22T03:00:37.015Z,4.86
2022-11-22T03:03:03.778Z,4.80
2022-11-22T03:05:30.411Z,4.81
2022-11-22T03:07:57.004Z,4.87
2022-11-22T03:10:23.662Z,4.85
2022-11-22T03:12:50.256Z,4.79
2022-11-22T03:15:16.920Z,4.77
2022-11-22T03:17:43.539Z,4.77
2022-11-22T03:20:10.280Z,4.79
2022-11-22T03:22:36.868Z,4.81
2022-11-22T03:25:03.764Z,4.80
2022-11-22T03:27:30.371Z,4.87
2022-11-22T03:29:56.992Z,4.89
2022-11-22T03:32:23.663Z,4.89
2022-11-22T03:34:50.238Z,4.80
2022-11-22T03:37:16.870Z,4.76
2022-11-22T03:39:43.423Z,4.68
2022-11-22T03:42:10.041Z,4.62
2022-11-22T03:44:36.706Z,4.54
2022-11-22T03:47:03.465Z,4.52
2022-11-22T03:49:30.376Z,4.52
2022-11-22T03:51:57.084Z,4.52
2022-11-22T03:54:23.662Z,4.50
2022-11-22T03:56:50.322Z,4.47
2022-11-22T03:59:16.903Z,4.45
2022-11-22T04:01:43.564Z,4.40
2022-11-22T04:04:11.053Z,4.40
2022-11-22T04:06:38.527Z,4.42
2022-11-22T04:09:05.170Z,4.37
2022-11-22T04:11:31.891Z,4.30
2022-11-22T04:14:16.803Z,4.24
2022-11-22T04:16:43.467Z,4.17
2022-11-22T04:19:10.340Z,4.17
2022-11-22T04:21:37.005Z,4.12
2022-11-22T04:24:25.271Z,4.16
2022-11-22T04:26:52.511Z,4.21
2022-11-22T04:29:20.159Z,4.27
2022-11-22T04:32:06.728Z,4.29
2022-11-22T04:34:33.897Z,4.28
2022-11-22T04:37:01.392Z,4.32
2022-11-22T04:39:28.703Z,4.32
2022-11-22T04:42:15.492Z,4.26
2022-11-22T04:44:42.888Z,4.27
2022-11-22T04:47:10.820Z,4.26
2022-11-22T04:49:37.447Z,4.22
2022-11-22T04:52:23.672Z,4.25
2022-11-22T04:54:50.316Z,4.22
2022-11-22T04:57:16.944Z,4.31
2022-11-22T04:59:43.555Z,4.38
2022-11-22T05:02:10.169Z,4.40
2022-11-22T05:04:36.780Z,4.36
2022-11-22T05:07:03.468Z,4.35
2022-11-22T05:09:30.418Z,4.39
2022-11-22T05:11:57.238Z,4.44
2022-11-22T05:14:23.834Z,4.45
2022-11-22T05:16:50.407Z,4.42
2022-11-22T05:19:17.004Z,4.37
2022-11-22T05:21:43.591Z,4.35
2022-11-22T05:24:10.183Z,4.29
2022-11-22T05:26:37.678Z,4.25
2022-11-22T05:29:07.168Z,4.28
2022-11-22T05:31:36.462Z,4.23
2022-11-22T05:34:05.125Z,4.19
2022-11-22T05:36:33.616Z,4.14
2022-11-22T05:39:00.401Z,4.11
2022-11-22T05:41:27.100Z,4.05
2022-11-22T05:43:57.623Z,4.03
2022-11-22T05:46:29.306Z,4.06
2022-11-22T05:48:57.594Z,4.13
2022-11-22T05:51:32.161Z,4.24
2022-11-22T05:54:00.972Z,4.30
2022-11-22T05:56:27.554Z,4.27
2022-11-22T05:58:54.253Z,4.31
2022-11-22T06:01:25.144Z,4.28
2022-11-22T06:03:52.638Z,4.22
2022-11-22T06:06:19.281Z,4.24
2022-11-22T06:08:48.111Z,4.33
2022-11-22T06:11:17.357Z,4.33
2022-11-22T06:13:45.579Z,4.33
2022-11-22T06:16:12.507Z,4.34
2022-11-22T06:18:39.442Z,4.33
2022-11-22T06:21:10.291Z,4.35
2022-11-22T06:23:36.868Z,4.35
2022-11-22T06:26:09.295Z,4.34
2022-11-22T06:28:37.130Z,4.23
2022-11-22T06:31:05.365Z,4.16
2022-11-22T06:33:32.268Z,4.10
2022-11-22T06:36:10.253Z,4.09
2022-11-22T06:38:38.313Z,4.08
2022-11-22T06:41:07.730Z,4.05
2022-11-22T06:43:37.356Z,3.96
2022-11-22T06:46:05.696Z,3.93
2022-11-22T06:48:34.318Z,3.95
2022-11-22T06:51:06.444Z,3.93
2022-11-22T06:53:50.078Z,3.95
2022-11-22T06:56:18.140Z,4.06
2022-11-22T06:58:46.394Z,4.12
2022-11-22T07:01:27.341Z,4.22
2022-11-22T07:03:58.338Z,4.24
2022-11-22T07:06:27.783Z,4.21
2022-11-22T07:08:54.810Z,4.18
2022-11-22T07:11:24.294Z,4.15
2022-11-22T07:13:51.645Z,4.13
2022-11-22T07:16:20.859Z,4.12
2022-11-22T07:18:48.714Z,4.12
2022-11-22T07:21:18.832Z,4.14
2022-11-22T07:23:47.729Z,4.16
2022-11-22T07:26:15.868Z,4.17
2022-11-22T07:28:42.740Z,4.21
2022-11-22T07:31:10.943Z,4.21
2022-11-22T07:33:37.830Z,4.18
2022-11-22T07:36:10.053Z,4.13
2022-11-22T07:38:37.247Z,4.20
2022-11-22T07:41:04.851Z,4.17
2022-11-22T07:43:32.969Z,4.19
2022-11-22T07:46:00.570Z,4.14
2022-11-22T07:48:27.142Z,4.13
2022-11-22T07:50:53.768Z,4.01
2022-11-22T07:53:20.466Z,4.04
2022-11-22T07:55:47.117Z,3.96
2022-11-22T07:58:13.812Z,4.05
2022-11-22T08:00:40.487Z,4.05
2022-11-22T08:03:08.280Z,4.11
2022-11-22T08:05:35.052Z,4.08
2022-11-22T08:08:01.640Z,4.18
2022-11-22T08:10:28.265Z,4.08
2022-11-22T08:12:59.166Z,3.92
2022-11-22T08:15:25.782Z,3.82
2022-11-22T08:17:52.556Z,3.77
2022-11-22T08:20:19.154Z,3.78
2022-11-22T08:22:45.715Z,3.81
2022-11-22T08:25:15.196Z,3.85
2022-11-22T08:27:43.362Z,3.91
2022-11-22T08:30:11.306Z,3.97
2022-11-22T08:32:38.462Z,4.14
2022-11-22T08:35:05.703Z,4.33
2022-11-22T08:37:32.336Z,4.42
2022-11-22T08:39:59.039Z,4.43
2022-11-22T08:42:25.639Z,5.00
2022-11-22T08:44:52.301Z,5.42
2022-11-22T08:47:18.871Z,5.79
2022-11-22T08:49:45.460Z,5.63
2022-11-22T08:52:12.055Z,6.06
2022-11-22T08:54:38.718Z,5.56
2022-11-22T08:57:05.477Z,5.19
2022-11-22T08:59:33.041Z,5.06
2022-11-22T09:02:00.147Z,4.97
2022-11-22T09:04:26.883Z,5.12
2022-11-22T09:09:40.111Z,5.01
2022-11-22T09:12:07.290Z,4.96
2022-11-22T09:14:33.918Z,5.24
2022-11-22T09:17:00.566Z,5.33
2022-11-22T09:19:27.121Z,5.49
2022-11-22T09:21:53.707Z,5.89
2022-11-22T09:24:20.318Z,6.06
2022-11-22T09:26:46.952Z,6.30
2022-11-22T09:29:14.289Z,6.20
2022-11-22T09:31:40.990Z,6.05
2022-11-22T09:34:07.967Z,6.01
2022-11-22T09:36:34.793Z,5.47
2022-11-22T09:39:01.411Z,5.45
2022-11-22T09:41:43.121Z,5.43
2022-11-22T09:44:37.361Z,5.44
2022-11-22T09:47:03.958Z,5.54
2022-11-22T09:49:44.690Z,5.39
2022-11-22T09:52:25.317Z,5.38
2022-11-22T09:54:59.543Z,5.31
2022-11-22T09:57:37.631Z,5.34
2022-11-22T10:00:20.322Z,5.43
2022-11-22T10:03:01.024Z,5.45
2022-11-22T10:05:39.019Z,5.37
2022-11-22T10:08:25.098Z,5.39
2022-11-22T10:10:55.909Z,5.39
2022-11-22T10:13:31.649Z,5.66
2022-11-22T10:16:03.356Z,5.74
2022-11-22T10:18:32.662Z,5.72
2022-11-22T10:20:59.354Z,5.67
2022-11-22T10:23:27.535Z,5.85
2022-11-22T10:26:04.952Z,5.92
2022-11-22T10:28:31.485Z,5.84
2022-11-22T10:30:58.023Z,5.71
2022-11-22T10:34:09.667Z,5.65
2022-11-22T10:37:01.983Z,5.64
2022-11-22T10:39:47.901Z,5.76
2022-11-22T10:42:41.823Z,5.71
2022-11-22T10:45:31.243Z,5.77
2022-11-22T10:48:21.142Z,5.89
2022-11-22T10:51:08.738Z,6.08
2022-11-22T10:53:48.906Z,6.41
2022-11-22T10:56:26.994Z,6.20
2022-11-22T10:59:10.604Z,6.23
2022-11-22T11:01:42.341Z,6.32
2022-11-22T11:04:14.024Z,6.31
2022-11-22T11:07:11.573Z,6.39
2022-11-22T11:12:53.093Z,6.30
2022-11-22T11:15:21.935Z,6.29
2022-11-22T11:17:55.247Z,6.38
2022-11-22T11:20:43.619Z,6.62
2022-11-22T11:23:15.089Z,6.89
2022-11-22T11:25:44.718Z,6.78
2022-11-22T11:28:23.747Z,6.58
2022-11-22T11:30:54.375Z,6.44
2022-11-22T11:33:24.359Z,6.46
2022-11-22T11:35:55.227Z,6.44
2022-11-22T11:38:44.725Z,6.46
2022-11-22T11:41:19.090Z,6.35
2022-11-22T11:43:46.523Z,6.46
2022-11-22T11:46:22.021Z,6.36
2022-11-22T11:48:51.156Z,6.30
2022-11-22T11:51:37.269Z,6.20
2022-11-22T11:54:09.952Z,6.23
2022-11-22T11:56:46.411Z,6.28
2022-11-22T11:59:38.668Z,6.42
2022-11-22T12:02:16.283Z,6.87
2022-11-22T12:04:59.461Z,6.83
2022-11-22T12:07:28.545Z,6.73
2022-11-22T12:09:56.238Z,6.65
2022-11-22T12:12:31.690Z,6.59
2022-11-22T12:15:21.215Z,6.38
2022-11-22T12:17:59.363Z,6.37
2022-11-22T12:20:37.945Z,6.38
2022-11-22T12:23:23.086Z,6.48
2022-11-22T12:25:52.283Z,6.44
2022-11-22T12:28:21.557Z,6.42
2022-11-22T12:30:54.162Z,6.37
2022-11-22T12:33:27.507Z,6.55
2022-11-22T12:35:55.396Z,6.89
2022-11-22T12:38:27.988Z,7.09
2022-11-22T12:40:59.253Z,6.93
2022-11-22T12:43:28.922Z,6.86
2022-11-22T12:46:01.814Z,6.77
2022-11-22T12:48:51.841Z,6.71
2022-11-22T12:51:28.264Z,6.50
2022-11-22T12:54:00.860Z,6.56
2022-11-22T12:56:50.197Z,6.39
2022-11-22T12:59:26.813Z,6.30
2022-11-22T13:02:22.405Z,6.14
2022-11-22T13:05:01.846Z,6.00
2022-11-22T13:07:36.585Z,6.15
2022-11-22T13:10:14.892Z,6.26
2022-11-22T13:12:43.019Z,6.66
2022-11-22T13:15:13.986Z,6.83
2022-11-22T13:17:40.652Z,6.67
2022-11-22T13:20:17.132Z,6.57
2022-11-22T13:23:08.814Z,6.51
2022-11-22T13:26:11.712Z,6.42
2022-11-22T13:28:43.502Z,6.31
2022-11-22T13:31:10.067Z,6.41
2022-11-22T13:33:39.768Z,6.37
2022-11-22T13:36:29.414Z,6.47
2022-11-22T13:39:02.108Z,6.49
2022-11-22T13:41:40.128Z,6.59
2022-11-22T13:44:22.053Z,6.70
2022-11-22T13:47:04.934Z,6.78
2022-11-22T13:49:39.165Z,6.69
2022-11-22T13:52:16.659Z,6.42
2022-11-22T13:54:58.268Z,6.32
2022-11-22T13:57:27.803Z,6.24
2022-11-22T14:00:18.701Z,6.27
2022-11-22T14:02:51.045Z,6.32
2022-11-22T14:05:26.818Z,6.43
2022-11-22T14:07:55.959Z,6.26
2022-11-22T14:10:37.732Z,6.27
2022-11-22T14:13:09.288Z,6.40
2022-11-22T14:15:48.246Z,6.51
2022-11-22T14:18:34.086Z,6.44
2022-11-22T14:21:01.429Z,6.39
2022-11-22T14:23:43.287Z,6.34
2022-11-22T14:26:20.367Z,6.24
2022-11-22T14:29:17.711Z,6.11
2022-11-22T14:31:55.314Z,6.01
2022-11-22T14:34:25.031Z,5.99
2022-11-22T14:37:10.068Z,6.05
2022-11-22T14:39:45.602Z,6.07
2022-11-22T14:42:41.101Z,6.06
2022-11-22T14:45:10.499Z,5.99
2022-11-22T14:47:40.872Z,5.93
2022-11-22T14:50:18.705Z,5.88
2022-11-22T14:52:48.023Z,5.83
2022-11-22T14:55:18.809Z,5.81
2022-11-22T14:57:51.770Z,5.79
2022-11-22T15:00:21.563Z,5.71
2022-11-22T15:02:54.246Z,5.73
2022-11-22T15:09:12.132Z,5.63
2022-11-22T15:09:21.293Z,5.67
2022-11-22T15:12:11.615Z,5.63
2022-11-22T15:14:59.419Z,5.66
2022-11-22T15:57:37.291Z,5.62
2022-11-22T16:00:10.762Z,5.65
2022-11-22T16:02:47.296Z,5.65
2022-11-22T16:06:05.400Z,5.59
2022-11-22T16:08:01.886Z,5.58
2022-11-22T16:10:39.163Z,5.59
2022-11-22T16:13:11.621Z,5.59
2022-11-22T16:15:38.643Z,5.59
2022-11-22T16:18:22.368Z,5.65
2022-11-22T16:21:03.272Z,5.64
2022-11-22T16:23:37.741Z,5.60
2022-11-22T16:26:22.247Z,5.59
2022-11-22T16:28:51.579Z,5.63
2022-11-22T16:31:24.295Z,5.67
2022-11-22T16:33:54.012Z,5.66
2022-11-22T16:36:22.832Z,5.59
2022-11-22T16:38:50.102Z,5.62
2022-11-22T16:41:27.026Z,5.55
2022-11-22T16:44:00.217Z,5.52
2022-11-22T16:46:26.971Z,5.56
2022-11-22T16:48:54.988Z,5.59
2022-11-22T16:51:30.076Z,5.53
2022-11-22T16:54:00.121Z,5.50
2022-11-22T16:56:29.224Z,5.54
2022-11-22T16:58:57.437Z,5.57
2022-11-22T17:01:27.228Z,5.64
2022-11-22T17:03:56.479Z,5.61
2022-11-22T17:06:25.352Z,5.61
2022-11-22T17:08:54.576Z,5.56
2022-11-22T17:11:23.861Z,5.50
2022-11-22T17:13:50.657Z,5.49
2022-11-22T17:16:20.609Z,5.53
2022-11-22T17:18:48.414Z,5.51
2022-11-22T17:21:25.571Z,5.42
2022-11-22T17:23:55.085Z,5.42
2022-11-22T17:26:21.752Z,5.36
2022-11-22T17:28:48.508Z,5.44
2022-11-22T17:31:17.363Z,5.46
2022-11-22T17:33:44.057Z,5.54
2022-11-22T17:36:22.088Z,5.53
2022-11-22T17:38:48.725Z,5.57
2022-11-22T17:41:15.392Z,5.59
2022-11-22T17:43:42.002Z,5.63
2022-11-22T17:46:08.572Z,5.62
2022-11-22T17:48:35.178Z,5.67
2022-11-22T17:51:10.143Z,5.70
2022-11-22T17:53:37.049Z,5.74
2022-11-22T17:56:11.753Z,5.74
2022-11-22T17:58:39.831Z,5.79
2022-11-22T18:01:12.239Z,5.80
2022-11-22T18:03:40.122Z,5.83
2022-11-22T18:06:09.670Z,5.82
2022-11-22T18:08:36.365Z,5.83
2022-11-22T18:11:04.184Z,5.81
2022-11-22T18:13:33.390Z,5.86
2022-11-22T18:16:03.664Z,5.86
2022-11-22T18:21:18.874Z,5.88
2022-11-22T18:23:45.573Z,5.88
2022-11-22T18:31:54.297Z,5.80
2022-11-22T18:34:24.589Z,5.82
2022-11-22T18:37:07.241Z,5.86
2022-11-22T18:39:39.049Z,5.83
2022-11-22T18:42:08.722Z,5.79
2022-11-22T18:44:35.365Z,5.78
2022-11-22T18:47:01.964Z,5.76
2022-11-22T18:49:29.082Z,5.81
2022-11-22T18:51:56.060Z,5.76
2022-11-22T18:54:23.178Z,5.77
2022-11-22T18:56:51.489Z,5.78
2022-11-22T18:59:18.623Z,5.81
2022-11-22T19:01:45.294Z,5.80
2022-11-22T19:04:14.094Z,5.82
2022-11-22T19:06:41.892Z,5.84
2022-11-22T19:09:09.375Z,5.79
2022-11-22T19:11:36.109Z,5.78
2022-11-22T19:14:02.800Z,5.83
2022-11-22T19:16:30.355Z,5.82
2022-11-22T19:18:59.226Z,5.76
2022-11-22T19:21:27.966Z,5.75
2022-11-22T19:23:55.642Z,5.74
2022-11-22T19:26:24.786Z,5.79
2022-11-22T19:28:55.653Z,5.79
2022-11-22T19:31:25.178Z,5.74
2022-11-22T19:33:51.797Z,5.60
2022-11-22T19:36:21.427Z,5.59
2022-11-22T19:38:48.673Z,5.48
2022-11-22T19:41:18.091Z,5.52
2022-11-22T19:43:45.859Z,5.55
2022-11-22T19:46:13.215Z,5.62
2022-11-22T19:48:46.660Z,5.66
2022-11-22T19:51:15.452Z,5.66
2022-11-22T19:53:42.829Z,5.66
2022-11-22T19:56:15.572Z,5.71
2022-11-22T19:58:43.779Z,5.75
2022-11-22T20:01:13.014Z,5.73
2022-11-22T20:03:42.304Z,5.77
2022-11-22T20:06:11.637Z,5.80
2022-11-22T20:08:39.225Z,5.78
2022-11-22T20:11:11.345Z,5.81
2022-11-22T20:13:40.425Z,5.81
2022-11-22T20:16:17.501Z,5.75
2022-11-22T20:18:44.086Z,5.64
2022-11-22T20:21:12.191Z,5.53
2022-11-22T20:23:39.606Z,5.54
2022-11-22T20:26:11.553Z,5.60
2022-11-22T20:28:39.623Z,5.65
2022-11-22T20:31:10.993Z,5.61
2022-11-22T20:33:40.746Z,5.61
2022-11-22T20:36:10.052Z,5.64
2022-11-22T20:38:38.659Z,5.70
2022-11-22T20:41:06.392Z,5.72
2022-11-22T20:43:34.290Z,5.71
2022-11-22T20:46:02.290Z,5.72
2022-11-22T20:48:29.406Z,5.71
2022-11-22T20:50:56.119Z,5.73
2022-11-22T20:53:22.722Z,5.77
2022-11-22T20:55:49.318Z,5.76
2022-11-22T20:58:16.084Z,5.70
2022-11-22T21:00:43.395Z,5.65
2022-11-22T21:03:10.703Z,5.69
2022-11-22T21:05:37.542Z,5.71
2022-11-22T21:08:05.415Z,5.76
2022-11-22T21:10:32.560Z,5.77
2022-11-22T21:12:59.436Z,5.81
2022-11-22T21:15:26.038Z,5.79
2022-11-22T21:18:23.061Z,5.83
2022-11-22T21:20:41.919Z,5.83
2022-11-22T21:23:08.497Z,5.85
2022-11-22T21:25:35.439Z,5.83
2022-11-22T21:28:02.505Z,5.83
2022-11-22T21:30:29.123Z,5.84
2022-11-22T21:32:56.042Z,5.85
2022-11-22T21:35:22.733Z,5.89
2022-11-22T21:37:49.298Z,5.88
2022-11-22T21:40:16.229Z,5.88
2022-11-22T21:42:44.624Z,5.89
2022-11-22T21:45:11.216Z,5.89
2022-11-22T21:47:37.773Z,5.88
2022-11-22T21:50:08.640Z,5.85
2022-11-22T21:52:38.160Z,5.85
2022-11-22T21:55:05.175Z,5.88
2022-11-22T21:57:31.743Z,5.89
2022-11-22T21:59:58.317Z,5.88
2022-11-22T22:02:24.924Z,5.90
2022-11-22T22:04:51.498Z,5.91
2022-11-22T22:07:44.651Z,5.98
2022-11-22T22:10:05.423Z,5.93
2022-11-22T22:12:32.205Z,5.94
2022-11-22T22:14:58.805Z,5.94
2022-11-22T22:17:25.463Z,5.93
2022-11-22T22:19:52.442Z,6.04
2022-11-22T22:22:19.042Z,6.07
2022-11-22T22:24:45.897Z,6.07
2022-11-22T22:27:12.574Z,6.02
2022-11-22T22:29:39.154Z,6.09
2022-11-22T22:32:10.340Z,6.04
2022-11-22T22:34:37.343Z,6.01
2022-11-22T22:37:03.900Z,6.02
2022-11-22T22:39:30.939Z,5.94
2022-11-22T22:41:57.725Z,5.94
2022-11-22T22:44:24.379Z,5.94
2022-11-22T22:46:50.919Z,5.98
2022-11-22T22:49:17.613Z,6.01
2022-11-22T22:51:44.253Z,6.02
2022-11-22T22:54:10.944Z,6.05
2022-11-22T22:56:37.495Z,6.10
2022-11-22T22:59:05.234Z,6.13
2022-11-22T23:01:31.971Z,6.14
2022-11-22T23:04:00.734Z,6.15
2022-11-22T23:06:33.350Z,6.18
2022-11-22T23:09:00.103Z,6.17
2022-11-22T23:11:47.836Z,6.21
2022-11-22T23:14:17.224Z,6.26
2022-11-22T23:16:43.803Z,6.27
2022-11-22T23:19:10.947Z,6.24
2022-11-22T23:21:37.633Z,6.27
2022-11-22T23:24:04.929Z,6.28
2022-11-22T23:26:32.039Z,6.29
2022-11-22T23:28:59.539Z,6.31
2022-11-22T23:31:27.340Z,6.19
2022-11-22T23:33:54.794Z,6.15
2022-11-22T23:36:23.534Z,6.13
2022-11-22T23:38:50.552Z,6.15
2022-11-22T23:41:22.238Z,6.18
2022-11-22T23:43:54.163Z,6.23
2022-11-22T23:46:22.433Z,6.26
2022-11-22T23:48:53.937Z,6.24
2022-11-22T23:51:21.748Z,6.23
2022-11-22T23:53:48.566Z,6.26
2022-11-22T23:56:21.531Z,6.27
2022-11-22T23:58:49.036Z,6.20
